Time;durP1;ratioP1;P1;durP2;ratioP2;P2;SDS_P1;SDS_P2;PMS_P1;PMS_P2;Temp;Humidity;BMP_temperature;BMP_pressure;BME280_temperature;BME280_humidity;BME280_pressure;Samples;Min_cycle;Max_cycle;Signal;HPM_P1;HPM_P2
2022/03/05 00:00:07;;;;;;;5.93;4.63;;;0.80;99.90;;;;;;4916895;29;20223;-72
2022/03/05 00:02:32;;;;;;;6.80;4.20;;;0.90;99.90;;;;;;4917402;29;20236;-73
2022/03/05 00:04:58;;;;;;;6.03;4.43;;;0.90;99.90;;;;;;4916702;29;20180;-72
2022/03/05 00:07:23;;;;;;;6.80;4.17;;;0.80;99.90;;;;;;4916936;29;20246;-72
2022/03/05 00:09:49;;;;;;;5.87;4.07;;;0.90;99.90;;;;;;4919249;29;20194;-73
2022/03/05 00:12:15;;;;;;;7.77;4.53;;;0.80;99.90;;;;;;4916810;29;20599;-72
2022/03/05 00:14:40;;;;;;;7.93;4.30;;;0.80;99.90;;;;;;4927359;29;20191;-72
2022/03/05 00:17:07;;;;;;;7.17;4.07;;;0.80;99.90;;;;;;4917453;29;20276;-73
2022/03/05 00:19:32;;;;;;;7.77;4.43;;;0.80;99.90;;;;;;4927714;29;20729;-74
2022/03/05 00:22:01;;;;;;;5.83;4.27;;;0.80;99.90;;;;;;4924087;29;20211;-72
2022/03/05 00:24:27;;;;;;;6.33;4.07;;;0.70;99.90;;;;;;4934483;29;20251;-73
2022/03/05 00:26:53;;;;;;;7.33;4.40;;;0.70;99.90;;;;;;4924127;29;20578;-72
2022/03/05 00:29:19;;;;;;;7.03;4.53;;;0.70;99.90;;;;;;4916597;29;20267;-73
2022/03/05 00:31:45;;;;;;;6.13;4.20;;;0.70;99.90;;;;;;4916468;29;20276;-72
2022/03/05 00:34:10;;;;;;;6.13;4.00;;;0.70;99.90;;;;;;4916199;29;20314;-73
2022/03/05 00:36:37;;;;;;;6.50;4.33;;;0.70;99.90;;;;;;4916101;29;20208;-72
2022/03/05 00:39:04;;;;;;;4.90;3.93;;;0.70;99.90;;;;;;4917387;29;20257;-73
2022/03/05 00:41:30;;;;;;;7.60;3.97;;;0.70;99.90;;;;;;4916366;29;20212;-72
2022/03/05 00:43:55;;;;;;;5.17;4.27;;;0.60;99.90;;;;;;4915914;29;20197;-72
2022/03/05 00:46:21;;;;;;;5.50;3.90;;;0.60;99.90;;;;;;4917133;29;20176;-72
2022/03/05 00:48:47;;;;;;;7.13;3.97;;;0.60;99.90;;;;;;4916143;29;20191;-72
2022/03/05 00:51:12;;;;;;;6.53;3.70;;;0.60;99.90;;;;;;4916197;29;20243;-72
2022/03/05 00:53:38;;;;;;;6.37;4.00;;;0.60;99.90;;;;;;4916355;29;20216;-72
2022/03/05 00:56:07;;;;;;;6.30;3.60;;;0.60;99.90;;;;;;4917843;29;20220;-73
2022/03/05 00:58:32;;;;;;;4.87;3.70;;;0.60;99.90;;;;;;4931006;29;20197;-72
2022/03/05 01:00:58;;;;;;;8.00;4.37;;;0.60;99.90;;;;;;4921298;29;20209;-73
2022/03/05 01:03:24;;;;;;;6.17;4.03;;;0.60;99.90;;;;;;4915780;29;20192;-73
2022/03/05 01:05:50;;;;;;;7.60;4.17;;;0.50;99.90;;;;;;4919986;29;20267;-74
2022/03/05 01:08:16;;;;;;;5.70;4.00;;;0.50;99.90;;;;;;4920844;29;20208;-74
2022/03/05 01:10:41;;;;;;;6.50;3.77;;;0.50;99.90;;;;;;4922058;29;20615;-72
2022/03/05 01:13:07;;;;;;;12.00;3.90;;;0.40;99.90;;;;;;4915240;29;20194;-72
2022/03/05 01:15:33;;;;;;;5.70;4.20;;;0.40;99.90;;;;;;4919917;29;20180;-73
2022/03/05 01:17:59;;;;;;;4.33;3.70;;;0.40;99.90;;;;;;4915630;29;20207;-73
2022/03/05 01:20:24;;;;;;;6.70;4.30;;;0.40;99.90;;;;;;4919545;29;20197;-73
2022/03/05 01:22:50;;;;;;;8.27;4.07;;;0.40;99.90;;;;;;4925317;29;20745;-73
2022/03/05 01:25:16;;;;;;;6.03;4.13;;;0.40;99.90;;;;;;4920518;29;20187;-73
2022/03/05 01:27:41;;;;;;;6.63;3.90;;;0.40;99.90;;;;;;4918994;29;20230;-73
2022/03/05 01:30:07;;;;;;;6.07;3.83;;;0.40;99.90;;;;;;4925302;29;20271;-72
2022/03/05 01:32:33;;;;;;;5.67;3.67;;;0.30;99.90;;;;;;4915109;29;20278;-73
2022/03/05 01:34:59;;;;;;;6.80;4.47;;;0.30;99.90;;;;;;4915331;29;20296;-72
2022/03/05 01:37:24;;;;;;;6.70;4.07;;;0.30;99.90;;;;;;4915277;29;20290;-73
2022/03/05 01:39:50;;;;;;;6.77;4.07;;;0.30;99.90;;;;;;4915232;29;20202;-73
2022/03/05 01:42:23;;;;;;;7.57;3.93;;;0.30;99.90;;;;;;4927287;29;20185;-74
2022/03/05 01:44:49;;;;;;;6.27;3.70;;;0.30;99.90;;;;;;4914789;29;20184;-72
2022/03/05 01:47:14;;;;;;;7.97;3.77;;;0.30;99.90;;;;;;4923345;29;20296;-73
2022/03/05 01:49:40;;;;;;;6.50;4.00;;;0.20;99.90;;;;;;4934208;29;20189;-74
2022/03/05 01:52:06;;;;;;;6.70;4.07;;;0.20;99.90;;;;;;4934074;29;20602;-72
2022/03/05 01:54:32;;;;;;;7.27;4.07;;;0.10;99.90;;;;;;4934036;29;20187;-73
2022/03/05 01:56:59;;;;;;;6.70;4.00;;;0.20;99.90;;;;;;4917881;29;20203;-73
2022/03/05 01:59:25;;;;;;;7.93;4.47;;;0.20;99.90;;;;;;4915045;29;20678;-73
2022/03/05 02:01:51;;;;;;;10.83;4.33;;;0.30;99.90;;;;;;4915096;29;20264;-73
2022/03/05 02:04:17;;;;;;;6.10;3.97;;;0.20;99.90;;;;;;4914093;29;20208;-74
2022/03/05 02:06:43;;;;;;;9.10;4.93;;;0.20;99.90;;;;;;4915133;29;20254;-73
2022/03/05 02:09:09;;;;;;;6.40;4.20;;;0.20;99.90;;;;;;4917042;29;20195;-73
2022/03/05 02:11:35;;;;;;;6.47;4.13;;;0.20;99.90;;;;;;4918578;29;20206;-73
2022/03/05 02:14:00;;;;;;;7.40;4.50;;;0.20;99.90;;;;;;4915450;29;20188;-73
2022/03/05 02:16:26;;;;;;;6.10;4.27;;;0.20;99.90;;;;;;4915030;29;20215;-73
2022/03/05 02:18:56;;;;;;;6.93;3.83;;;0.20;99.90;;;;;;4914777;29;20185;-72
2022/03/05 02:21:26;;;;;;;8.87;3.97;;;0.30;99.90;;;;;;4916572;29;20211;-73
2022/03/05 02:23:53;;;;;;;5.27;3.43;;;0.20;99.90;;;;;;4920689;29;20182;-72
2022/03/05 02:26:19;;;;;;;6.60;4.07;;;0.20;99.90;;;;;;4917918;29;20665;-73
2022/03/05 02:28:45;;;;;;;9.23;4.27;;;0.20;99.90;;;;;;4922389;29;20187;-73
2022/03/05 02:31:11;;;;;;;6.20;4.33;;;0.10;99.90;;;;;;4915680;29;20188;-71
2022/03/05 02:33:36;;;;;;;6.23;3.80;;;0.10;99.90;;;;;;4920899;29;20625;-73
2022/03/05 02:36:04;;;;;;;8.47;4.27;;;0.10;99.90;;;;;;4914459;29;20182;-72
2022/03/05 02:38:30;;;;;;;8.30;4.70;;;0.10;99.90;;;;;;4914408;29;20186;-71
2022/03/05 02:40:56;;;;;;;6.27;4.10;;;0.10;99.90;;;;;;4918646;29;20203;-72
2022/03/05 02:43:22;;;;;;;7.47;4.67;;;0.10;99.90;;;;;;4915888;29;20190;-72
2022/03/05 02:45:48;;;;;;;7.27;4.37;;;0.10;99.90;;;;;;4914292;29;20238;-72
2022/03/05 02:48:15;;;;;;;6.20;4.33;;;0.10;99.90;;;;;;4914610;29;20207;-72
2022/03/05 02:50:42;;;;;;;8.13;4.50;;;0.10;99.90;;;;;;4914565;29;20195;-72
2022/03/05 02:53:08;;;;;;;6.53;4.50;;;0.00;99.90;;;;;;4914338;29;20198;-74
2022/03/05 02:55:34;;;;;;;10.00;4.63;;;0.00;99.90;;;;;;4914185;29;20195;-74
2022/03/05 02:58:00;;;;;;;8.70;4.37;;;0.00;99.90;;;;;;4915111;29;20342;-74
2022/03/05 03:00:26;;;;;;;5.77;3.70;;;0.00;99.90;;;;;;4914265;29;20202;-74
2022/03/05 03:02:52;;;;;;;7.97;4.77;;;0.00;99.90;;;;;;4915804;29;20200;-73
2022/03/05 03:05:18;;;;;;;7.50;4.60;;;0.00;99.90;;;;;;4914060;29;20194;-74
2022/03/05 03:07:44;;;;;;;9.53;4.63;;;0.00;99.90;;;;;;4914301;29;20202;-72
2022/03/05 03:10:12;;;;;;;8.20;4.10;;;0.00;99.90;;;;;;4914570;29;20218;-73
2022/03/05 03:12:39;;;;;;;7.13;4.57;;;0.00;99.90;;;;;;4914160;29;20191;-74
2022/03/05 03:15:06;;;;;;;7.00;4.63;;;0.00;99.90;;;;;;4915605;29;20286;-72
2022/03/05 03:17:49;;;;;;;6.63;5.00;;;0.00;99.90;;;;;;4917662;29;20263;-72
2022/03/05 03:20:22;;;;;;;6.57;4.40;;;0.00;99.90;;;;;;4922239;29;20275;-73
2022/03/05 03:22:48;;;;;;;5.60;4.23;;;-0.10;99.90;;;;;;4930204;29;20263;-73
2022/03/05 03:25:13;;;;;;;6.13;4.33;;;-0.10;99.90;;;;;;4919122;29;20283;-73
2022/03/05 03:27:39;;;;;;;7.37;4.53;;;-0.10;99.90;;;;;;4925744;29;20198;-72
2022/03/05 03:30:07;;;;;;;8.33;4.90;;;-0.10;99.90;;;;;;4934359;29;20182;-73
2022/03/05 03:32:33;;;;;;;7.33;4.50;;;-0.20;99.90;;;;;;4917586;29;20187;-73
2022/03/05 03:34:58;;;;;;;8.80;4.47;;;-0.10;99.90;;;;;;4917621;29;20223;-73
2022/03/05 03:37:28;;;;;;;8.27;4.87;;;-0.20;99.90;;;;;;4917385;29;20206;-73
2022/03/05 03:39:55;;;;;;;6.73;4.90;;;-0.10;99.90;;;;;;4917678;29;20218;-73
2022/03/05 03:42:22;;;;;;;7.57;4.27;;;-0.10;99.90;;;;;;4918230;29;20193;-72
2022/03/05 03:44:47;;;;;;;8.33;4.63;;;-0.10;99.90;;;;;;4916857;29;20191;-73
2022/03/05 03:47:13;;;;;;;6.97;4.20;;;-0.10;99.90;;;;;;4917203;29;20206;-72
2022/03/05 03:49:38;;;;;;;9.03;5.20;;;-0.10;99.90;;;;;;4917088;29;20191;-74
2022/03/05 03:52:04;;;;;;;7.77;4.73;;;-0.10;99.90;;;;;;4917045;29;20228;-74
2022/03/05 03:54:30;;;;;;;8.73;5.17;;;-0.10;99.90;;;;;;4917004;29;20317;-74
2022/03/05 03:56:55;;;;;;;11.77;5.23;;;-0.10;99.90;;;;;;4926075;29;20229;-73
2022/03/05 03:59:22;;;;;;;8.83;4.80;;;-0.20;99.90;;;;;;4937038;29;20277;-73
2022/03/05 04:02:05;;;;;;;9.67;5.07;;;-0.20;99.90;;;;;;5125093;27;20560;-73
2022/03/05 04:04:31;;;;;;;8.90;4.77;;;-0.20;99.90;;;;;;5106209;27;20181;-73
2022/03/05 04:09:41;;;;;;;8.40;4.47;;;-0.20;99.90;;;;;;5081803;28;20263;-74
2022/03/05 04:12:08;;;;;;;9.17;5.00;;;-0.30;99.90;;;;;;5088041;28;20269;-72
2022/03/05 04:14:34;;;;;;;11.07;4.67;;;-0.30;99.90;;;;;;5088927;28;20205;-74
2022/03/05 04:17:00;;;;;;;7.60;4.90;;;-0.30;99.90;;;;;;5075237;28;20207;-74
2022/03/05 04:19:26;;;;;;;5.90;4.40;;;-0.30;99.90;;;;;;5071449;28;20182;-73
2022/03/05 04:21:51;;;;;;;9.83;5.33;;;-0.30;99.90;;;;;;5078766;28;20683;-73
2022/03/05 04:24:20;;;;;;;12.07;5.27;;;-0.30;99.90;;;;;;5082898;28;20177;-74
2022/03/05 04:26:46;;;;;;;9.30;5.50;;;-0.30;99.90;;;;;;5075992;28;20188;-75
2022/03/05 04:29:11;;;;;;;8.40;4.97;;;-0.20;99.90;;;;;;5070668;28;20278;-74
2022/03/05 04:31:37;;;;;;;8.00;4.93;;;-0.30;99.90;;;;;;5089086;28;20193;-73
2022/03/05 04:34:02;;;;;;;8.77;4.93;;;-0.30;99.90;;;;;;5070860;28;20177;-73
2022/03/05 04:36:28;;;;;;;7.53;4.63;;;-0.30;99.90;;;;;;5070484;28;20257;-73
2022/03/05 04:38:54;;;;;;;9.23;5.40;;;-0.30;99.90;;;;;;5071293;28;20225;-74
2022/03/05 04:41:19;;;;;;;8.60;5.10;;;-0.30;99.90;;;;;;5069021;28;20197;-73
2022/03/05 04:43:46;;;;;;;8.40;5.70;;;-0.30;99.90;;;;;;5070695;28;20264;-73
2022/03/05 04:46:12;;;;;;;7.40;5.20;;;-0.30;99.90;;;;;;5063889;28;20269;-73
2022/03/05 04:48:38;;;;;;;10.27;5.03;;;-0.40;99.90;;;;;;5052674;28;20265;-74
2022/03/05 04:51:03;;;;;;;8.10;5.40;;;-0.50;99.90;;;;;;5068028;28;20178;-74
2022/03/05 04:53:29;;;;;;;7.23;4.93;;;-0.40;99.90;;;;;;5069874;28;20177;-73
2022/03/05 04:55:55;;;;;;;9.20;5.13;;;-0.50;99.90;;;;;;5070069;28;20177;-73
2022/03/05 04:58:20;;;;;;;8.87;5.03;;;-0.50;99.90;;;;;;5082400;28;20183;-74
2022/03/05 05:00:47;;;;;;;10.60;5.23;;;-0.40;99.90;;;;;;5071343;28;20211;-73
2022/03/05 05:03:12;;;;;;;9.90;5.30;;;-0.50;99.90;;;;;;5069990;28;20178;-72
2022/03/05 05:05:38;;;;;;;9.73;5.17;;;-0.50;99.90;;;;;;5065617;28;20173;-73
2022/03/05 05:08:04;;;;;;;9.00;5.17;;;-0.50;99.90;;;;;;5069546;28;20730;-74
2022/03/05 05:10:30;;;;;;;6.87;5.20;;;-0.50;99.90;;;;;;5070298;28;20185;-73
2022/03/05 05:12:56;;;;;;;9.07;5.77;;;-0.50;99.90;;;;;;5057242;28;20181;-74
2022/03/05 05:15:22;;;;;;;7.90;5.17;;;-0.50;99.90;;;;;;5059428;28;20170;-73
2022/03/05 05:17:48;;;;;;;9.10;5.03;;;-0.50;99.90;;;;;;5056676;28;20250;-72
2022/03/05 05:20:14;;;;;;;11.37;5.43;;;-0.50;99.90;;;;;;5047945;28;20568;-73
2022/03/05 05:22:39;;;;;;;9.70;4.90;;;-0.50;99.90;;;;;;5071045;28;20193;-73
2022/03/05 05:25:06;;;;;;;8.30;5.63;;;-0.50;99.90;;;;;;5058402;28;20172;-74
2022/03/05 05:27:38;;;;;;;9.20;5.30;;;-0.60;99.90;;;;;;5064799;28;20192;-73
2022/03/05 05:30:06;;;;;;;9.30;5.20;;;-0.60;99.90;;;;;;5056547;28;20180;-74
2022/03/05 05:32:32;;;;;;;7.20;5.17;;;-0.60;99.90;;;;;;5038700;28;20182;-73
2022/03/05 05:34:57;;;;;;;7.43;5.03;;;-0.60;99.90;;;;;;5044084;28;20278;-72
2022/03/05 05:37:23;;;;;;;11.33;5.50;;;-0.60;99.90;;;;;;5054398;28;20211;-73
2022/03/05 05:39:49;;;;;;;11.27;5.70;;;-0.50;99.90;;;;;;5036064;28;20225;-73
2022/03/05 05:42:14;;;;;;;9.37;5.17;;;-0.50;99.90;;;;;;5036406;28;20181;-74
2022/03/05 05:44:40;;;;;;;8.50;5.27;;;-0.50;99.90;;;;;;5036488;28;20260;-73
2022/03/05 05:47:06;;;;;;;7.40;5.10;;;-0.50;99.90;;;;;;5052045;28;20199;-73
2022/03/05 05:49:32;;;;;;;9.10;5.80;;;-0.50;99.90;;;;;;5053376;28;20223;-73
2022/03/05 05:51:57;;;;;;;9.57;5.67;;;-0.60;99.90;;;;;;5038686;28;20193;-74
2022/03/05 05:54:23;;;;;;;9.17;5.30;;;-0.60;99.90;;;;;;5041073;28;20195;-74
2022/03/05 05:56:49;;;;;;;9.73;5.20;;;-0.60;99.90;;;;;;5052889;28;20220;-73
2022/03/05 05:59:15;;;;;;;10.90;5.50;;;-0.60;99.90;;;;;;5067804;28;20272;-72
2022/03/05 06:01:41;;;;;;;9.03;5.47;;;-0.70;99.90;;;;;;5080848;28;20296;-74
2022/03/05 06:04:07;;;;;;;9.47;5.30;;;-0.70;99.90;;;;;;5063445;28;20280;-72
2022/03/05 06:06:33;;;;;;;9.93;5.63;;;-0.70;99.90;;;;;;5055388;28;20278;-73
2022/03/05 06:08:58;;;;;;;8.97;6.00;;;-0.70;99.90;;;;;;5047129;28;20186;-73
2022/03/05 06:11:24;;;;;;;9.37;5.23;;;-0.60;99.90;;;;;;5095826;28;20662;-78
2022/03/05 06:13:50;;;;;;;9.20;5.50;;;-0.60;99.90;;;;;;5047945;28;20184;-77
2022/03/05 06:16:16;;;;;;;8.43;5.53;;;-0.60;99.90;;;;;;5054966;28;20253;-78
2022/03/05 06:18:41;;;;;;;11.17;5.20;;;-0.60;99.90;;;;;;5056953;28;20188;-80
2022/03/05 06:21:08;;;;;;;10.97;6.17;;;-0.60;99.90;;;;;;5049977;28;20226;-78
2022/03/05 06:23:34;;;;;;;9.27;5.90;;;-0.60;99.90;;;;;;5046951;28;20177;-78
2022/03/05 06:26:00;;;;;;;9.60;5.30;;;-0.60;99.90;;;;;;5046119;28;20184;-76
2022/03/05 06:28:25;;;;;;;14.40;6.10;;;-0.60;99.90;;;;;;5067561;28;20693;-77
2022/03/05 06:30:51;;;;;;;11.83;6.07;;;-0.60;99.90;;;;;;5106424;28;20189;-77
2022/03/05 06:33:17;;;;;;;9.20;5.53;;;-0.60;99.90;;;;;;5073957;28;20242;-78
2022/03/05 06:35:42;;;;;;;9.63;5.60;;;-0.50;99.90;;;;;;5060467;28;20183;-78
2022/03/05 06:38:08;;;;;;;10.47;5.70;;;-0.60;99.90;;;;;;5073545;28;20260;-78
2022/03/05 06:40:34;;;;;;;9.17;5.57;;;-0.60;99.90;;;;;;5061449;28;20638;-79
2022/03/05 06:42:59;;;;;;;8.53;5.70;;;-0.60;99.90;;;;;;5059021;28;20175;-78
2022/03/05 06:45:25;;;;;;;8.60;5.07;;;-0.50;99.90;;;;;;5064079;28;20533;-80
2022/03/05 06:47:50;;;;;;;7.00;5.20;;;-0.50;99.90;;;;;;5086965;28;20208;-77
2022/03/05 06:50:16;;;;;;;8.70;5.17;;;-0.50;99.90;;;;;;5049867;28;20218;-78
2022/03/05 06:52:42;;;;;;;9.47;5.90;;;-0.50;99.90;;;;;;5064464;28;20167;-80
2022/03/05 06:55:09;;;;;;;10.33;5.90;;;-0.50;99.90;;;;;;5062562;28;20182;-79
2022/03/05 06:57:35;;;;;;;10.03;5.90;;;-0.50;99.90;;;;;;5063229;28;20198;-77
2022/03/05 07:00:00;;;;;;;12.40;5.97;;;-0.40;99.90;;;;;;5068466;28;20205;-78
2022/03/05 07:02:26;;;;;;;10.77;5.97;;;-0.40;99.90;;;;;;5067218;28;20179;-78
2022/03/05 07:04:52;;;;;;;10.03;5.53;;;-0.40;99.90;;;;;;5078289;28;20200;-78
2022/03/05 07:07:17;;;;;;;10.90;5.60;;;-0.40;99.90;;;;;;5064823;28;20205;-77
2022/03/05 07:09:43;;;;;;;11.87;6.47;;;-0.40;99.90;;;;;;5081555;28;20257;-79
2022/03/05 07:12:09;;;;;;;12.87;6.07;;;-0.30;99.90;;;;;;5067387;28;20204;-78
2022/03/05 07:14:35;;;;;;;11.37;5.90;;;-0.30;99.90;;;;;;5065316;28;20261;-79
2022/03/05 07:17:01;;;;;;;15.27;6.47;;;-0.30;99.90;;;;;;5060900;28;20288;-79
2022/03/05 07:19:27;;;;;;;9.63;6.07;;;-0.30;99.90;;;;;;5065422;28;20175;-79
2022/03/05 07:21:52;;;;;;;9.17;5.83;;;-0.20;99.90;;;;;;5056683;28;20298;-78
2022/03/05 07:24:18;;;;;;;11.87;6.43;;;-0.20;99.90;;;;;;5093163;28;20167;-77
2022/03/05 07:26:43;;;;;;;11.90;6.43;;;-0.10;99.90;;;;;;5056928;28;20188;-77
2022/03/05 07:29:09;;;;;;;9.87;6.53;;;-0.10;99.90;;;;;;5063253;28;20184;-78
2022/03/05 07:31:34;;;;;;;12.27;5.97;;;-0.10;99.90;;;;;;5073130;28;20213;-78
2022/03/05 07:34:00;;;;;;;10.27;6.37;;;-0.10;99.90;;;;;;5081832;28;20181;-78
2022/03/05 07:36:26;;;;;;;9.57;6.23;;;0.00;99.90;;;;;;5065528;28;20332;-79
2022/03/05 07:38:51;;;;;;;10.03;6.50;;;0.00;99.90;;;;;;5047758;28;20197;-77
2022/03/05 07:41:17;;;;;;;8.83;6.27;;;0.00;99.90;;;;;;5064547;28;20217;-79
2022/03/05 07:43:44;;;;;;;12.13;6.53;;;0.10;99.90;;;;;;5074529;28;20666;-79
2022/03/05 07:46:09;;;;;;;11.90;6.33;;;0.10;99.90;;;;;;5069841;28;20189;-79
2022/03/05 07:48:35;;;;;;;11.43;6.67;;;0.20;99.90;;;;;;5073181;28;20177;-78
2022/03/05 07:51:02;;;;;;;12.23;7.23;;;0.20;99.90;;;;;;5059961;28;20192;-78
2022/03/05 07:53:28;;;;;;;10.47;6.47;;;0.30;99.90;;;;;;5053172;28;20590;-77
2022/03/05 07:55:54;;;;;;;11.93;7.07;;;0.40;99.90;;;;;;5053509;28;20177;-78
2022/03/05 07:58:20;;;;;;;11.77;7.03;;;0.40;99.90;;;;;;5055865;28;20206;-79
2022/03/05 08:00:45;;;;;;;14.17;7.17;;;0.50;99.90;;;;;;5062592;28;20295;-78
2022/03/05 08:03:11;;;;;;;10.07;6.60;;;0.50;99.90;;;;;;5067599;28;20260;-77
2022/03/05 08:05:37;;;;;;;10.47;6.87;;;0.60;99.90;;;;;;5055090;28;20181;-77
2022/03/05 08:08:02;;;;;;;13.17;7.43;;;0.60;99.90;;;;;;5040406;28;20273;-77
2022/03/05 08:10:28;;;;;;;10.83;6.90;;;0.60;99.90;;;;;;5078332;28;20189;-78
2022/03/05 08:12:54;;;;;;;13.73;6.67;;;0.70;99.90;;;;;;5079105;28;20186;-77
2022/03/05 08:15:20;;;;;;;11.63;6.83;;;0.70;99.90;;;;;;5044417;28;20190;-78
2022/03/05 08:17:48;;;;;;;15.57;7.93;;;0.80;99.90;;;;;;5046084;28;20227;-79
2022/03/05 08:20:14;;;;;;;13.00;7.23;;;0.90;99.90;;;;;;5082050;28;20584;-77
2022/03/05 08:22:40;;;;;;;11.90;7.37;;;1.00;99.90;;;;;;5055892;28;20179;-77
2022/03/05 08:25:05;;;;;;;12.73;7.17;;;1.00;99.90;;;;;;5039535;28;20585;-77
2022/03/05 08:27:31;;;;;;;15.57;7.63;;;1.10;99.90;;;;;;5053136;28;20712;-78
2022/03/05 08:29:57;;;;;;;9.83;6.97;;;1.10;99.90;;;;;;5052369;28;20186;-77
2022/03/05 08:32:22;;;;;;;11.23;7.47;;;1.10;99.90;;;;;;5054021;28;20177;-78
2022/03/05 08:34:48;;;;;;;12.20;7.30;;;1.20;99.90;;;;;;5063386;28;20263;-77
2022/03/05 08:37:14;;;;;;;15.60;7.83;;;1.20;99.90;;;;;;5050653;28;20196;-77
2022/03/05 08:39:40;;;;;;;12.17;7.87;;;1.30;99.90;;;;;;5034015;28;20522;-78
2022/03/05 08:42:06;;;;;;;13.70;9.80;;;1.30;99.90;;;;;;5054771;28;20413;-78
2022/03/05 08:44:32;;;;;;;12.20;8.20;;;1.40;99.90;;;;;;5053174;28;20202;-78
2022/03/05 08:46:57;;;;;;;10.93;7.23;;;1.50;99.90;;;;;;5070710;28;20700;-78
2022/03/05 08:49:23;;;;;;;12.47;7.60;;;1.50;99.90;;;;;;5053210;28;20171;-77
2022/03/05 08:51:49;;;;;;;13.60;8.03;;;1.50;99.90;;;;;;5045659;28;20607;-77
2022/03/05 08:54:14;;;;;;;11.43;7.83;;;1.60;99.90;;;;;;5052830;28;20194;-76
2022/03/05 08:56:40;;;;;;;15.32;10.32;;;1.60;99.90;;;;;;5045380;28;20407;-75
2022/03/05 08:59:05;;;;;;;14.03;8.40;;;1.70;99.90;;;;;;5063874;28;20175;-77
2022/03/05 09:01:31;;;;;;;11.43;7.10;;;1.80;99.90;;;;;;5063005;28;20573;-76
2022/03/05 09:03:57;;;;;;;13.57;7.30;;;1.80;99.90;;;;;;5046641;28;20186;-76
2022/03/05 09:06:22;;;;;;;12.37;7.60;;;1.80;99.90;;;;;;5062691;28;20178;-77
2022/03/05 09:08:48;;;;;;;13.47;7.50;;;1.90;99.90;;;;;;5072901;28;20183;-75
2022/03/05 09:11:14;;;;;;;13.83;7.60;;;2.00;99.90;;;;;;5062765;28;20677;-77
2022/03/05 09:13:39;;;;;;;13.00;7.67;;;2.00;99.90;;;;;;5040335;28;20200;-76
2022/03/05 09:16:06;;;;;;;12.47;7.40;;;2.10;99.90;;;;;;5043773;28;20553;-77
2022/03/05 09:18:31;;;;;;;12.20;6.87;;;2.10;99.90;;;;;;5070355;28;20204;-76
2022/03/05 09:20:57;;;;;;;11.50;7.10;;;2.10;99.90;;;;;;5048226;28;20199;-75
2022/03/05 09:23:22;;;;;;;14.63;7.57;;;2.10;99.90;;;;;;5052806;28;20736;-76
2022/03/05 09:25:48;;;;;;;10.17;6.63;;;2.20;99.90;;;;;;5051598;28;20171;-77
2022/03/05 09:28:14;;;;;;;11.67;7.97;;;2.20;99.90;;;;;;5094907;28;20190;-76
2022/03/05 09:30:39;;;;;;;11.23;7.33;;;2.30;99.90;;;;;;5070831;28;20179;-76
2022/03/05 09:33:05;;;;;;;14.90;7.40;;;2.30;99.90;;;;;;5056081;28;20179;-76
2022/03/05 09:35:31;;;;;;;13.43;7.90;;;2.40;99.90;;;;;;5056342;28;20175;-77
2022/03/05 09:37:56;;;;;;;17.63;7.87;;;2.50;99.90;;;;;;5054021;28;20210;-78
2022/03/05 09:40:23;;;;;;;10.93;7.23;;;2.50;99.90;;;;;;5053988;28;20196;-77
2022/03/05 09:42:49;;;;;;;14.27;7.73;;;2.60;99.90;;;;;;5036012;28;20176;-77
2022/03/05 09:45:15;;;;;;;12.33;7.90;;;2.60;99.90;;;;;;5054072;28;20168;-77
2022/03/05 09:47:42;;;;;;;11.37;7.50;;;2.70;99.90;;;;;;5054861;28;20184;-75
2022/03/05 09:50:09;;;;;;;13.13;7.47;;;2.70;99.90;;;;;;5037116;28;20191;-77
2022/03/05 09:52:34;;;;;;;14.60;7.17;;;2.80;99.90;;;;;;5036506;28;20179;-76
2022/03/05 09:55:01;;;;;;;12.40;7.67;;;2.80;99.90;;;;;;5036214;28;20182;-77
2022/03/05 09:57:26;;;;;;;12.17;7.43;;;2.90;99.90;;;;;;5048762;28;20249;-76
2022/03/05 09:59:52;;;;;;;14.87;8.50;;;2.90;99.90;;;;;;5058700;28;20183;-75
2022/03/05 10:02:18;;;;;;;12.50;7.80;;;3.00;99.90;;;;;;5074857;28;20175;-77
2022/03/05 10:04:44;;;;;;;15.63;7.73;;;3.00;99.90;;;;;;5055923;28;20171;-77
2022/03/05 10:07:15;;;;;;;12.67;8.30;;;3.10;99.90;;;;;;5057310;28;20199;-77
2022/03/05 10:09:44;;;;;;;15.00;7.90;;;3.10;99.90;;;;;;5057070;28;20176;-78
2022/03/05 10:12:25;;;;;;;11.80;7.70;;;3.10;99.90;;;;;;5064292;28;20324;-76
2022/03/05 10:15:17;;;;;;;13.87;8.03;;;3.10;99.90;;;;;;5055800;28;20172;-77
2022/03/05 10:17:58;;;;;;;14.00;7.83;;;3.20;99.90;;;;;;5058617;28;20198;-76
2022/03/05 10:20:25;;;;;;;12.50;8.23;;;3.30;99.90;;;;;;5055554;28;20234;-77
2022/03/05 10:23:01;;;;;;;14.20;8.23;;;3.30;99.90;;;;;;5070594;28;20529;-76
2022/03/05 10:25:31;;;;;;;15.27;8.80;;;3.40;99.90;;;;;;5070815;28;20210;-77
2022/03/05 10:28:05;;;;;;;16.33;8.83;;;3.40;99.90;;;;;;5063744;28;20200;-76
2022/03/05 10:30:45;;;;;;;13.83;7.93;;;3.50;99.90;;;;;;5055953;28;20192;-77
2022/03/05 10:33:24;;;;;;;12.43;8.20;;;3.60;99.90;;;;;;5055886;28;20199;-77
2022/03/05 10:35:50;;;;;;;11.90;8.07;;;3.70;99.90;;;;;;5073457;28;20174;-77
2022/03/05 10:38:16;;;;;;;15.30;8.00;;;3.70;99.90;;;;;;5055612;28;20203;-77
2022/03/05 10:40:41;;;;;;;16.63;9.00;;;3.70;99.90;;;;;;5049523;28;20672;-77
2022/03/05 10:43:09;;;;;;;12.60;8.20;;;3.70;99.90;;;;;;5072465;28;20185;-77
2022/03/05 10:45:53;;;;;;;13.90;8.30;;;3.80;99.90;;;;;;5072702;28;20171;-76
2022/03/05 10:48:26;;;;;;;12.20;7.90;;;3.80;99.90;;;;;;5055223;28;20195;-76
2022/03/05 10:50:58;;;;;;;14.20;8.20;;;3.90;99.90;;;;;;5073553;28;20173;-77
2022/03/05 10:53:35;;;;;;;14.67;8.43;;;4.00;99.90;;;;;;5069839;28;20176;-76
2022/03/05 10:56:20;;;;;;;16.30;8.40;;;4.00;99.90;;;;;;5055446;28;20177;-77
2022/03/05 10:59:01;;;;;;;15.27;9.00;;;4.00;99.90;;;;;;5059073;28;20190;-76
2022/03/05 11:01:27;;;;;;;14.77;8.73;;;4.10;99.90;;;;;;5081130;28;20256;-77
2022/03/05 11:03:53;;;;;;;16.00;8.80;;;4.10;99.90;;;;;;5076068;28;20176;-76
2022/03/05 11:06:20;;;;;;;14.67;8.80;;;4.20;99.90;;;;;;5067641;28;20242;-76
2022/03/05 11:08:47;;;;;;;13.67;8.53;;;4.20;99.90;;;;;;5066006;28;20204;-77
2022/03/05 11:11:18;;;;;;;16.77;8.17;;;4.20;99.90;;;;;;5054009;28;20278;-75
2022/03/05 11:13:44;;;;;;;15.57;8.90;;;4.30;99.90;;;;;;5083849;28;20184;-76
2022/03/05 11:16:10;;;;;;;15.80;9.57;;;4.40;99.90;;;;;;5062580;28;20184;-77
2022/03/05 11:18:36;;;;;;;14.37;9.00;;;4.30;99.90;;;;;;5069000;28;20277;-76
2022/03/05 11:21:02;;;;;;;12.17;7.97;;;4.30;99.90;;;;;;5063116;28;20198;-76
2022/03/05 11:23:29;;;;;;;15.70;8.73;;;4.40;99.90;;;;;;5050490;28;20185;-77
2022/03/05 11:25:55;;;;;;;15.30;9.13;;;4.50;99.90;;;;;;5042463;28;20186;-77
2022/03/05 11:28:22;;;;;;;13.77;9.17;;;4.60;99.90;;;;;;5046523;28;20203;-76
2022/03/05 11:30:55;;;;;;;15.93;9.20;;;4.60;99.90;;;;;;5048171;28;20274;-77
2022/03/05 11:33:23;;;;;;;14.07;8.70;;;4.70;99.90;;;;;;5053504;28;20236;-76
2022/03/05 11:35:49;;;;;;;13.50;8.53;;;4.80;99.90;;;;;;5061572;28;20175;-76
2022/03/05 11:38:36;;;;;;;16.20;9.00;;;4.80;99.90;;;;;;5062074;28;20201;-78
2022/03/05 11:41:26;;;;;;;14.20;8.77;;;4.80;99.90;;;;;;5041827;28;20202;-76
2022/03/05 11:43:51;;;;;;;14.80;8.87;;;4.90;99.90;;;;;;5039883;28;20335;-77
2022/03/05 11:46:26;;;;;;;13.57;8.73;;;4.90;99.90;;;;;;5049693;28;20322;-77
2022/03/05 11:49:11;;;;;;;14.70;8.93;;;5.00;99.90;;;;;;5062379;28;20196;-77
2022/03/05 11:51:54;;;;;;;15.30;9.20;;;5.00;99.90;;;;;;5073100;28;20178;-77
2022/03/05 11:54:21;;;;;;;14.53;8.63;;;5.00;99.90;;;;;;5053124;28;20270;-75
2022/03/05 11:57:16;;;;;;;12.10;8.20;;;5.10;99.90;;;;;;5051508;28;20198;-77
2022/03/05 11:59:50;;;;;;;12.17;8.10;;;5.20;99.90;;;;;;5027895;28;20245;-76
2022/03/05 12:02:41;;;;;;;14.63;9.20;;;5.20;99.90;;;;;;5060834;28;20186;-75
2022/03/05 12:05:07;;;;;;;14.93;8.70;;;5.20;99.90;;;;;;5054987;28;20208;-76
2022/03/05 12:07:39;;;;;;;13.80;9.07;;;5.30;99.90;;;;;;5056651;28;20220;-75
2022/03/05 12:10:15;;;;;;;13.47;8.10;;;5.40;99.90;;;;;;5042985;28;20258;-76
2022/03/05 12:12:55;;;;;;;13.83;8.90;;;5.40;99.90;;;;;;5062697;28;20250;-76
2022/03/05 12:15:35;;;;;;;12.07;8.33;;;5.50;99.90;;;;;;5042035;28;20183;-77
2022/03/05 12:18:02;;;;;;;14.07;8.53;;;5.50;99.90;;;;;;5074290;28;20326;-76
2022/03/05 12:20:33;;;;;;;13.47;8.60;;;5.50;99.90;;;;;;5064871;28;20202;-76
2022/03/05 12:23:01;;;;;;;11.67;8.43;;;5.60;99.90;;;;;;5054002;28;20265;-76
2022/03/05 12:25:29;;;;;;;12.87;9.13;;;5.60;99.90;;;;;;5058298;28;20182;-76
2022/03/05 12:27:55;;;;;;;15.33;8.97;;;5.60;99.90;;;;;;5056142;28;20248;-75
2022/03/05 12:30:24;;;;;;;13.80;8.37;;;5.60;99.90;;;;;;5059773;28;20175;-77
2022/03/05 12:32:52;;;;;;;13.87;8.97;;;5.60;99.90;;;;;;5070387;28;20170;-76
2022/03/05 12:35:19;;;;;;;14.50;9.10;;;5.70;99.90;;;;;;5057688;28;20181;-76
2022/03/05 12:37:45;;;;;;;12.90;8.43;;;5.70;99.90;;;;;;5057756;28;20199;-76
2022/03/05 12:40:12;;;;;;;14.30;8.90;;;5.80;99.90;;;;;;5062882;28;20235;-76
2022/03/05 12:42:42;;;;;;;13.73;8.87;;;5.80;99.90;;;;;;5056448;28;20562;-76
2022/03/05 12:45:33;;;;;;;14.97;9.77;;;5.80;99.90;;;;;;5053269;28;20175;-77
2022/03/05 12:48:06;;;;;;;15.47;8.67;;;5.80;99.90;;;;;;5051049;28;20218;-76
2022/03/05 12:50:37;;;;;;;14.07;8.83;;;5.90;99.90;;;;;;5051776;28;20183;-78